sensor_id;sensor_type;location;lat;lon;timestamp;pressure;altitude;pressure_sealevel;temperature;humidity
56198;BME280;42700;42.524;12.052;2022-09-17T00:01:35;99980.94;;;23.77;100.00
56198;BME280;42700;42.524;12.052;2022-09-17T00:04:01;100082.38;;;23.83;100.00
56198;BME280;42700;42.524;12.052;2022-09-17T00:06:28;99939.66;;;23.68;100.00
56198;BME280;42700;42.524;12.052;2022-09-17T00:08:54;99930.03;;;23.66;100.00
56198;BME280;42700;42.524;12.052;2022-09-17T00:11:24;99872.06;;;23.60;100.00
56198;BME280;42700;42.524;12.052;2022-09-17T00:13:51;99947.53;;;23.63;100.00
56198;BME280;42700;42.524;12.052;2022-09-17T00:16:21;99748.19;;;23.40;100.00
56198;BME280;42700;42.524;12.052;2022-09-17T00:18:46;99810.94;;;23.44;100.00
56198;BME280;42700;42.524;12.052;2022-09-17T00:21:15;99869.09;;;23.48;100.00
56198;BME280;42700;42.524;12.052;2022-09-17T00:23:42;99819.91;;;23.45;100.00
56198;BME280;42700;42.524;12.052;2022-09-17T00:26:07;99779.03;;;23.39;100.00
56198;BME280;42700;42.524;12.052;2022-09-17T00:28:33;99726.72;;;23.32;100.00
56198;BME280;42700;42.524;12.052;2022-09-17T00:30:58;99828.66;;;23.40;100.00
56198;BME280;42700;42.524;12.052;2022-09-17T00:33:24;99742.38;;;23.30;100.00
56198;BME280;42700;42.524;12.052;2022-09-17T00:35:56;99705.66;;;23.21;100.00
56198;BME280;42700;42.524;12.052;2022-09-17T00:38:22;99849.91;;;23.36;100.00
56198;BME280;42700;42.524;12.052;2022-09-17T00:40:47;99834.28;;;23.38;100.00
56198;BME280;42700;42.524;12.052;2022-09-17T00:43:12;99852.84;;;23.42;100.00
56198;BME280;42700;42.524;12.052;2022-09-17T00:45:38;99729.84;;;23.29;100.00
56198;BME280;42700;42.524;12.052;2022-09-17T00:48:04;99849.50;;;23.39;100.00
56198;BME280;42700;42.524;12.052;2022-09-17T00:50:35;99887.88;;;23.43;100.00
56198;BME280;42700;42.524;12.052;2022-09-17T00:53:03;99890.38;;;23.45;100.00
56198;BME280;42700;42.524;12.052;2022-09-17T00:55:32;99927.72;;;23.49;100.00
56198;BME280;42700;42.524;12.052;2022-09-17T00:58:00;99949.81;;;23.53;100.00
56198;BME280;42700;42.524;12.052;2022-09-17T01:00:26;99845.34;;;23.44;100.00
56198;BME280;42700;42.524;12.052;2022-09-17T01:02:53;99849.09;;;23.43;100.00
56198;BME280;42700;42.524;12.052;2022-09-17T01:05:20;99818.66;;;23.40;100.00
56198;BME280;42700;42.524;12.052;2022-09-17T01:13:30;99855.34;;;23.43;100.00
56198;BME280;42700;42.524;12.052;2022-09-17T01:18:28;99727.34;;;23.34;100.00
56198;BME280;42700;42.524;12.052;2022-09-17T01:21:15;99595.19;;;23.16;100.00
56198;BME280;42700;42.524;12.052;2022-09-17T01:24:05;99484.34;;;23.01;100.00
56198;BME280;42700;42.524;12.052;2022-09-17T01:26:49;99705.25;;;23.17;100.00
56198;BME280;42700;42.524;12.052;2022-09-17T01:32:07;99674.59;;;23.17;100.00
56198;BME280;42700;42.524;12.052;2022-09-17T01:37:04;99672.34;;;23.14;100.00
56198;BME280;42700;42.524;12.052;2022-09-17T01:40:23;99658.78;;;23.14;100.00
56198;BME280;42700;42.524;12.052;2022-09-17T01:47:41;99401.94;;;22.84;100.00
56198;BME280;42700;42.524;12.052;2022-09-17T01:50:11;99418.59;;;22.81;100.00
56198;BME280;42700;42.524;12.052;2022-09-17T01:52:37;99376.13;;;22.75;100.00
56198;BME280;42700;42.524;12.052;2022-09-17T01:55:04;99396.13;;;22.74;100.00
56198;BME280;42700;42.524;12.052;2022-09-17T02:00:17;99472.75;;;22.81;100.00
56198;BME280;42700;42.524;12.052;2022-09-17T02:02:47;99456.50;;;22.81;100.00
56198;BME280;42700;42.524;12.052;2022-09-17T02:05:27;99489.41;;;22.84;100.00
56198;BME280;42700;42.524;12.052;2022-09-17T02:07:57;99500.25;;;22.84;100.00
56198;BME280;42700;42.524;12.052;2022-09-17T02:10:25;99461.06;;;22.80;100.00
56198;BME280;42700;42.524;12.052;2022-09-17T02:12:57;99529.81;;;22.86;100.00
56198;BME280;42700;42.524;12.052;2022-09-17T02:15:30;99520.44;;;22.89;100.00
56198;BME280;42700;42.524;12.052;2022-09-17T02:18:05;99570.22;;;22.94;100.00
56198;BME280;42700;42.524;12.052;2022-09-17T02:20:40;99454.41;;;22.83;100.00
56198;BME280;42700;42.524;12.052;2022-09-17T02:23:11;99527.72;;;22.88;100.00
56198;BME280;42700;42.524;12.052;2022-09-17T02:25:41;99499.22;;;22.85;100.00
56198;BME280;42700;42.524;12.052;2022-09-17T02:28:11;99519.00;;;22.86;100.00
56198;BME280;42700;42.524;12.052;2022-09-17T02:30:39;99550.44;;;22.87;100.00
56198;BME280;42700;42.524;12.052;2022-09-17T02:33:05;99528.75;;;22.87;100.00
56198;BME280;42700;42.524;12.052;2022-09-17T02:35:32;99512.97;;;22.84;100.00
56198;BME280;42700;42.524;12.052;2022-09-17T02:37:58;99464.00;;;22.79;100.00
56198;BME280;42700;42.524;12.052;2022-09-17T02:40:24;99368.25;;;22.66;100.00
56198;BME280;42700;42.524;12.052;2022-09-17T02:56:08;99237.22;;;22.36;100.00
56198;BME280;42700;42.524;12.052;2022-09-17T03:01:05;99247.41;;;22.34;100.00
56198;BME280;42700;42.524;12.052;2022-09-17T03:03:33;99275.94;;;22.36;100.00
56198;BME280;42700;42.524;12.052;2022-09-17T03:06:00;99315.88;;;22.41;100.00
56198;BME280;42700;42.524;12.052;2022-09-17T03:08:31;99299.63;;;22.41;100.00
56198;BME280;42700;42.524;12.052;2022-09-17T03:10:58;99232.25;;;22.33;100.00
56198;BME280;42700;42.524;12.052;2022-09-17T03:13:24;99330.03;;;22.43;100.00
56198;BME280;42700;42.524;12.052;2022-09-17T03:15:49;99323.78;;;22.42;100.00
56198;BME280;42700;42.524;12.052;2022-09-17T03:18:15;99337.09;;;22.44;100.00
56198;BME280;42700;42.524;12.052;2022-09-17T03:20:40;99326.25;;;22.44;100.00
56198;BME280;42700;42.524;12.052;2022-09-17T03:23:06;99337.94;;;22.44;100.00
56198;BME280;42700;42.524;12.052;2022-09-17T03:25:31;99324.63;;;22.43;100.00
56198;BME280;42700;42.524;12.052;2022-09-17T03:27:57;99370.81;;;22.48;100.00
56198;BME280;42700;42.524;12.052;2022-09-17T03:30:22;99401.81;;;22.52;100.00
56198;BME280;42700;42.524;12.052;2022-09-17T03:32:48;99397.47;;;22.51;100.00
56198;BME280;42700;42.524;12.052;2022-09-17T03:35:13;99354.59;;;22.48;100.00
56198;BME280;42700;42.524;12.052;2022-09-17T03:37:39;99336.66;;;22.47;100.00
56198;BME280;42700;42.524;12.052;2022-09-17T03:40:04;99335.03;;;22.46;100.00
56198;BME280;42700;42.524;12.052;2022-09-17T03:42:30;99280.69;;;22.41;100.00
56198;BME280;42700;42.524;12.052;2022-09-17T03:44:56;99244.28;;;22.37;100.00
56198;BME280;42700;42.524;12.052;2022-09-17T03:47:21;99210.59;;;22.33;100.00
56198;BME280;42700;42.524;12.052;2022-09-17T03:49:47;99150.25;;;22.25;100.00
56198;BME280;42700;42.524;12.052;2022-09-17T03:52:12;99121.13;;;22.21;100.00
56198;BME280;42700;42.524;12.052;2022-09-17T03:54:38;99109.91;;;22.17;100.00
56198;BME280;42700;42.524;12.052;2022-09-17T03:57:03;99037.16;;;22.09;100.00
56198;BME280;42700;42.524;12.052;2022-09-17T03:59:29;99048.19;;;22.07;100.00
56198;BME280;42700;42.524;12.052;2022-09-17T04:01:55;99039.69;;;22.04;100.00
56198;BME280;42700;42.524;12.052;2022-09-17T04:04:20;99094.38;;;22.06;100.00
56198;BME280;42700;42.524;12.052;2022-09-17T04:06:46;99130.78;;;22.10;100.00
56198;BME280;42700;42.524;12.052;2022-09-17T04:09:11;99159.03;;;22.14;100.00
56198;BME280;42700;42.524;12.052;2022-09-17T04:11:37;99173.19;;;22.16;100.00
56198;BME280;42700;42.524;12.052;2022-09-17T04:14:02;99241.00;;;22.21;100.00
56198;BME280;42700;42.524;12.052;2022-09-17T04:16:28;99206.88;;;22.20;100.00
56198;BME280;42700;42.524;12.052;2022-09-17T04:18:53;99185.66;;;22.17;100.00
56198;BME280;42700;42.524;12.052;2022-09-17T04:21:19;99216.03;;;22.19;100.00
56198;BME280;42700;42.524;12.052;2022-09-17T04:23:44;99154.06;;;22.11;100.00
56198;BME280;42700;42.524;12.052;2022-09-17T04:26:10;99247.44;;;22.20;100.00
56198;BME280;42700;42.524;12.052;2022-09-17T04:28:36;99129.09;;;22.09;100.00
56198;BME280;42700;42.524;12.052;2022-09-17T04:31:01;99161.13;;;22.12;100.00
56198;BME280;42700;42.524;12.052;2022-09-17T04:33:27;99159.47;;;22.11;100.00
56198;BME280;42700;42.524;12.052;2022-09-17T04:35:52;99161.56;;;22.09;100.00
56198;BME280;42700;42.524;12.052;2022-09-17T04:38:18;99129.53;;;22.06;100.00
56198;BME280;42700;42.524;12.052;2022-09-17T04:40:44;99171.56;;;22.08;100.00
56198;BME280;42700;42.524;12.052;2022-09-17T04:43:14;99176.75;;;22.10;100.00
56198;BME280;42700;42.524;12.052;2022-09-17T04:45:40;99143.69;;;22.08;100.00
56198;BME280;42700;42.524;12.052;2022-09-17T04:48:05;99048.66;;;21.98;100.00
56198;BME280;42700;42.524;12.052;2022-09-17T04:50:31;99057.84;;;21.97;100.00
56198;BME280;42700;42.524;12.052;2022-09-17T04:52:56;99017.09;;;21.91;100.00
56198;BME280;42700;42.524;12.052;2022-09-17T04:55:22;99023.53;;;21.90;100.00
56198;BME280;42700;42.524;12.052;2022-09-17T04:57:49;99021.88;;;21.89;100.00
56198;BME280;42700;42.524;12.052;2022-09-17T05:00:15;99007.75;;;21.87;100.00
56198;BME280;42700;42.524;12.052;2022-09-17T05:02:43;99010.47;;;21.87;100.00
56198;BME280;42700;42.524;12.052;2022-09-17T05:05:09;98982.22;;;21.83;100.00
56198;BME280;42700;42.524;12.052;2022-09-17T05:07:37;98972.44;;;21.82;100.00
56198;BME280;42700;42.524;12.052;2022-09-17T05:10:02;98945.22;;;21.77;100.00
56198;BME280;42700;42.524;12.052;2022-09-17T05:12:29;98906.41;;;21.71;100.00
56198;BME280;42700;42.524;12.052;2022-09-17T05:14:54;98885.44;;;21.67;100.00
56198;BME280;42700;42.524;12.052;2022-09-17T05:17:19;98911.41;;;21.68;100.00
56198;BME280;42700;42.524;12.052;2022-09-17T05:19:45;98893.75;;;21.65;100.00
56198;BME280;42700;42.524;12.052;2022-09-17T05:22:10;98894.56;;;21.66;100.00
56198;BME280;42700;42.524;12.052;2022-09-17T05:24:36;98867.38;;;21.61;100.00
56198;BME280;42700;42.524;12.052;2022-09-17T05:27:03;98903.13;;;21.63;100.00
56198;BME280;42700;42.524;12.052;2022-09-17T05:29:29;98845.59;;;21.55;100.00
56198;BME280;42700;42.524;12.052;2022-09-17T05:31:54;98868.88;;;21.56;100.00
56198;BME280;42700;42.524;12.052;2022-09-17T05:34:20;98961.13;;;21.67;100.00
56198;BME280;42700;42.524;12.052;2022-09-17T05:36:45;98937.81;;;21.66;100.00
56198;BME280;42700;42.524;12.052;2022-09-17T05:39:11;99043.16;;;21.79;100.00
56198;BME280;42700;42.524;12.052;2022-09-17T05:41:36;99009.06;;;21.78;100.00
56198;BME280;42700;42.524;12.052;2022-09-17T05:44:02;99133.38;;;21.91;100.00
56198;BME280;42700;42.524;12.052;2022-09-17T05:46:27;99182.84;;;21.99;100.00
56198;BME280;42700;42.524;12.052;2022-09-17T05:48:56;99247.72;;;22.05;100.00
56198;BME280;42700;42.524;12.052;2022-09-17T05:51:22;99309.69;;;22.14;100.00
56198;BME280;42700;42.524;12.052;2022-09-17T05:53:48;99343.41;;;22.18;100.00
56198;BME280;42700;42.524;12.052;2022-09-17T05:56:13;99355.47;;;22.22;100.00
56198;BME280;42700;42.524;12.052;2022-09-17T05:58:39;99397.91;;;22.28;100.00
56198;BME280;42700;42.524;12.052;2022-09-17T06:01:05;99455.78;;;22.34;100.00
56198;BME280;42700;42.524;12.052;2022-09-17T06:03:31;99474.31;;;22.37;100.00
56198;BME280;42700;42.524;12.052;2022-09-17T06:05:57;99596.09;;;22.50;100.00
56198;BME280;42700;42.524;12.052;2022-09-17T06:08:23;99709.78;;;22.63;100.00
56198;BME280;42700;42.524;12.052;2022-09-17T06:10:49;99769.78;;;22.74;100.00
56198;BME280;42700;42.524;12.052;2022-09-17T06:13:18;99859.81;;;22.82;100.00
56198;BME280;42700;42.524;12.052;2022-09-17T06:15:50;100009.91;;;23.01;100.00
56198;BME280;42700;42.524;12.052;2022-09-17T06:18:16;100133.41;;;23.17;100.00
56198;BME280;42700;42.524;12.052;2022-09-17T06:20:41;100192.88;;;23.26;100.00
56198;BME280;42700;42.524;12.052;2022-09-17T06:23:07;100322.69;;;23.42;100.00
56198;BME280;42700;42.524;12.052;2022-09-17T06:25:32;100422.69;;;23.52;100.00
56198;BME280;42700;42.524;12.052;2022-09-17T06:28:00;100529.22;;;23.67;100.00
56198;BME280;42700;42.524;12.052;2022-09-17T06:30:26;100623.28;;;23.82;100.00
56198;BME280;42700;42.524;12.052;2022-09-17T06:32:52;100634.22;;;23.88;100.00
56198;BME280;42700;42.524;12.052;2022-09-17T06:35:17;100807.06;;;24.09;100.00
56198;BME280;42700;42.524;12.052;2022-09-17T06:37:43;100891.41;;;24.23;100.00
56198;BME280;42700;42.524;12.052;2022-09-17T06:40:08;100962.19;;;24.36;100.00
56198;BME280;42700;42.524;12.052;2022-09-17T06:42:34;101090.31;;;24.55;100.00
56198;BME280;42700;42.524;12.052;2022-09-17T06:44:59;101143.56;;;24.64;100.00
56198;BME280;42700;42.524;12.052;2022-09-17T06:47:25;101239.56;;;24.79;100.00
56198;BME280;42700;42.524;12.052;2022-09-17T06:49:50;101197.72;;;24.80;100.00
56198;BME280;42700;42.524;12.052;2022-09-17T06:52:17;101364.44;;;24.96;100.00
56198;BME280;42700;42.524;12.052;2022-09-17T06:54:42;101464.56;;;25.07;100.00
56198;BME280;42700;42.524;12.052;2022-09-17T06:57:08;101626.78;;;25.23;100.00
56198;BME280;42700;42.524;12.052;2022-09-17T06:59:33;101881.22;;;25.58;100.00
56198;BME280;42700;42.524;12.052;2022-09-17T07:01:58;101747.22;;;25.56;100.00
56198;BME280;42700;42.524;12.052;2022-09-17T07:04:24;101574.88;;;25.41;100.00
56198;BME280;42700;42.524;12.052;2022-09-17T07:06:49;101691.47;;;25.52;100.00
56198;BME280;42700;42.524;12.052;2022-09-17T07:09:15;101870.28;;;25.75;100.00
56198;BME280;42700;42.524;12.052;2022-09-17T07:11:40;101765.88;;;25.68;100.00
56198;BME280;42700;42.524;12.052;2022-09-17T07:14:06;101871.63;;;25.79;100.00
56198;BME280;42700;42.524;12.052;2022-09-17T07:16:32;102022.69;;;25.91;100.00
56198;BME280;42700;42.524;12.052;2022-09-17T07:19:00;102042.13;;;25.96;100.00
56198;BME280;42700;42.524;12.052;2022-09-17T07:21:26;102121.06;;;26.05;100.00
56198;BME280;42700;42.524;12.052;2022-09-17T07:23:51;102429.28;;;26.43;100.00
56198;BME280;42700;42.524;12.052;2022-09-17T07:26:16;102468.69;;;26.57;100.00
56198;BME280;42700;42.524;12.052;2022-09-17T07:28:42;102403.09;;;26.50;100.00
56198;BME280;42700;42.524;12.052;2022-09-17T07:31:08;102452.19;;;26.58;100.00
56198;BME280;42700;42.524;12.052;2022-09-17T07:33:34;102494.13;;;26.65;100.00
56198;BME280;42700;42.524;12.052;2022-09-17T07:36:01;102481.19;;;26.67;100.00
56198;BME280;42700;42.524;12.052;2022-09-17T07:38:28;102652.84;;;26.85;100.00
56198;BME280;42700;42.524;12.052;2022-09-17T07:40:57;102799.69;;;26.98;100.00
56198;BME280;42700;42.524;12.052;2022-09-17T07:43:24;102882.28;;;27.09;100.00
56198;BME280;42700;42.524;12.052;2022-09-17T07:45:50;102995.94;;;27.18;100.00
56198;BME280;42700;42.524;12.052;2022-09-17T07:48:17;103099.44;;;27.29;100.00
56198;BME280;42700;42.524;12.052;2022-09-17T07:50:43;103175.91;;;27.37;100.00
56198;BME280;42700;42.524;12.052;2022-09-17T07:53:09;102989.22;;;27.30;100.00
56198;BME280;42700;42.524;12.052;2022-09-17T07:55:34;103201.75;;;27.43;100.00
56198;BME280;42700;42.524;12.052;2022-09-17T07:58:00;103265.78;;;27.49;100.00
56198;BME280;42700;42.524;12.052;2022-09-17T08:00:25;103679.31;;;27.84;100.00
56198;BME280;42700;42.524;12.052;2022-09-17T08:02:54;103533.56;;;27.75;100.00
56198;BME280;42700;42.524;12.052;2022-09-17T08:05:20;103652.31;;;27.80;100.00
56198;BME280;42700;42.524;12.052;2022-09-17T08:07:53;103503.38;;;27.76;100.00
56198;BME280;42700;42.524;12.052;2022-09-17T08:10:19;103052.06;;;27.38;100.00
56198;BME280;42700;42.524;12.052;2022-09-17T08:12:46;102829.47;;;27.18;100.00
56198;BME280;42700;42.524;12.052;2022-09-17T08:15:13;102726.41;;;27.03;100.00
56198;BME280;42700;42.524;12.052;2022-09-17T08:17:41;103232.22;;;27.38;100.00
56198;BME280;42700;42.524;12.052;2022-09-17T08:20:07;104079.81;;;28.07;100.00
56198;BME280;42700;42.524;12.052;2022-09-17T08:22:33;103954.06;;;28.07;100.00
56198;BME280;42700;42.524;12.052;2022-09-17T08:24:58;103158.84;;;27.53;100.00
56198;BME280;42700;42.524;12.052;2022-09-17T08:27:24;102524.69;;;27.02;100.00
56198;BME280;42700;42.524;12.052;2022-09-17T08:29:50;103594.50;;;27.75;100.00
56198;BME280;42700;42.524;12.052;2022-09-17T08:32:15;103983.38;;;28.05;100.00
56198;BME280;42700;42.524;12.052;2022-09-17T08:34:41;103499.09;;;27.74;100.00
56198;BME280;42700;42.524;12.052;2022-09-17T08:37:06;104512.91;;;28.47;100.00
56198;BME280;42700;42.524;12.052;2022-09-17T08:39:32;104784.31;;;28.73;100.00
56198;BME280;42700;42.524;12.052;2022-09-17T08:44:42;104083.47;;;28.37;100.00
56198;BME280;42700;42.524;12.052;2022-09-17T08:47:12;104126.22;;;28.38;100.00
56198;BME280;42700;42.524;12.052;2022-09-17T08:49:46;103375.03;;;27.94;100.00
56198;BME280;42700;42.524;12.052;2022-09-17T09:00:18;103966.88;;;28.26;100.00
56198;BME280;42700;42.524;12.052;2022-09-17T09:05:21;103514.78;;;28.00;100.00
56198;BME280;42700;42.524;12.052;2022-09-17T09:07:54;102894.22;;;27.68;100.00
56198;BME280;42700;42.524;12.052;2022-09-17T09:10:22;104730.56;;;28.95;100.00
56198;BME280;42700;42.524;12.052;2022-09-17T09:12:50;105064.84;;;29.25;100.00
56198;BME280;42700;42.524;12.052;2022-09-17T09:17:45;104181.94;;;28.87;100.00
56198;BME280;42700;42.524;12.052;2022-09-17T09:20:34;104050.44;;;28.79;100.00
56198;BME280;42700;42.524;12.052;2022-09-17T09:23:11;105386.25;;;29.61;100.00
56198;BME280;42700;42.524;12.052;2022-09-17T09:25:53;105639.06;;;29.78;100.00
56198;BME280;42700;42.524;12.052;2022-09-17T09:33:23;104679.41;;;29.49;100.00
56198;BME280;42700;42.524;12.052;2022-09-17T09:35:50;105372.44;;;29.98;100.00
56198;BME280;42700;42.524;12.052;2022-09-17T09:43:24;102045.16;;;27.90;100.00
56198;BME280;42700;42.524;12.052;2022-09-17T09:48:45;103213.66;;;28.40;100.00
56198;BME280;42700;42.524;12.052;2022-09-17T09:54:05;104859.38;;;29.48;100.00
56198;BME280;42700;42.524;12.052;2022-09-17T09:59:18;104784.00;;;29.75;100.00
56198;BME280;42700;42.524;12.052;2022-09-17T10:01:43;104824.22;;;29.53;100.00
56198;BME280;42700;42.524;12.052;2022-09-17T10:04:23;106099.34;;;30.10;100.00
56198;BME280;42700;42.524;12.052;2022-09-17T10:06:50;103878.31;;;28.86;100.00
56198;BME280;42700;42.524;12.052;2022-09-17T10:09:16;103551.91;;;28.76;100.00
56198;BME280;42700;42.524;12.052;2022-09-17T10:12:02;104525.84;;;29.50;100.00
56198;BME280;42700;42.524;12.052;2022-09-17T10:14:29;104995.31;;;29.83;100.00
56198;BME280;42700;42.524;12.052;2022-09-17T10:19:39;107169.25;;;31.15;100.00
56198;BME280;42700;42.524;12.052;2022-09-17T10:22:38;107944.91;;;31.64;100.00
56198;BME280;42700;42.524;12.052;2022-09-17T10:24:56;107227.44;;;31.23;100.00
56198;BME280;42700;42.524;12.052;2022-09-17T10:27:23;108181.25;;;31.91;100.00
56198;BME280;42700;42.524;12.052;2022-09-17T10:29:51;108914.50;;;32.42;100.00
56198;BME280;42700;42.524;12.052;2022-09-17T10:32:20;109286.22;;;32.81;100.00
56198;BME280;42700;42.524;12.052;2022-09-17T10:35:13;109903.44;;;33.37;100.00
56198;BME280;42700;42.524;12.052;2022-09-17T10:37:50;110162.97;;;33.76;100.00
56198;BME280;42700;42.524;12.052;2022-09-17T10:47:50;103849.66;;;30.09;100.00
56198;BME280;42700;42.524;12.052;2022-09-17T10:50:17;102569.47;;;29.18;100.00
56198;BME280;42700;42.524;12.052;2022-09-17T10:52:49;100092.78;;;27.48;100.00
56198;BME280;42700;42.524;12.052;2022-09-17T11:00:28;98251.47;;;24.45;100.00
56198;BME280;42700;42.524;12.052;2022-09-17T11:10:59;98644.50;;;25.62;100.00
56198;BME280;42700;42.524;12.052;2022-09-17T11:18:42;99834.59;;;26.81;100.00
56198;BME280;42700;42.524;12.052;2022-09-17T11:23:46;100741.03;;;27.55;100.00
56198;BME280;42700;42.524;12.052;2022-09-17T11:39:13;97023.53;;;26.65;100.00
56198;BME280;42700;42.524;12.052;2022-09-17T11:41:41;95728.34;;;25.85;100.00
56198;BME280;42700;42.524;12.052;2022-09-17T11:44:24;94747.09;;;25.16;100.00
56198;BME280;42700;42.524;12.052;2022-09-17T11:46:58;95269.31;;;25.63;100.00
56198;BME280;42700;42.524;12.052;2022-09-17T11:49:41;94655.28;;;25.06;100.00
56198;BME280;42700;42.524;12.052;2022-09-17T11:52:18;93220.56;;;24.69;100.00
56198;BME280;42700;42.524;12.052;2022-09-17T11:54:48;91703.97;;;24.05;100.00
56198;BME280;42700;42.524;12.052;2022-09-17T11:57:16;91084.84;;;23.58;100.00
56198;BME280;42700;42.524;12.052;2022-09-17T12:07:26;87613.59;;;21.83;100.00
56198;BME280;42700;42.524;12.052;2022-09-17T12:09:59;91675.63;;;23.06;100.00
56198;BME280;42700;42.524;12.052;2022-09-17T12:12:27;90778.66;;;22.81;100.00
56198;BME280;42700;42.524;12.052;2022-09-17T12:14:54;90422.84;;;22.78;100.00
56198;BME280;42700;42.524;12.052;2022-09-17T12:17:36;90165.03;;;22.53;100.00
56198;BME280;42700;42.524;12.052;2022-09-17T12:20:07;89781.28;;;22.60;100.00
56198;BME280;42700;42.524;12.052;2022-09-17T12:22:48;90882.84;;;22.82;100.00
56198;BME280;42700;42.524;12.052;2022-09-17T12:25:15;90026.25;;;22.73;100.00
56198;BME280;42700;42.524;12.052;2022-09-17T12:38:35;88048.81;;;21.71;100.00
56198;BME280;42700;42.524;12.052;2022-09-17T12:40:38;89041.19;;;21.91;100.00
56198;BME280;42700;42.524;12.052;2022-09-17T12:43:19;90323.13;;;22.28;100.00
56198;BME280;42700;42.524;12.052;2022-09-17T12:45:59;90870.97;;;22.59;100.00
56198;BME280;42700;42.524;12.052;2022-09-17T12:53:41;90294.75;;;22.37;100.00
56198;BME280;42700;42.524;12.052;2022-09-17T12:56:11;87937.03;;;21.66;100.00
56198;BME280;42700;42.524;12.052;2022-09-17T12:58:42;90212.44;;;22.41;100.00
56198;BME280;42700;42.524;12.052;2022-09-17T13:01:16;89420.94;;;22.43;100.00
56198;BME280;42700;42.524;12.052;2022-09-17T13:06:18;87024.91;;;21.62;100.00
56198;BME280;42700;42.524;12.052;2022-09-17T13:14:11;84290.28;;;20.21;100.00
56198;BME280;42700;42.524;12.052;2022-09-17T13:16:55;81603.41;;;19.12;100.00
56198;BME280;42700;42.524;12.052;2022-09-17T13:22:02;82792.84;;;18.58;100.00
56198;BME280;42700;42.524;12.052;2022-09-17T13:24:31;79968.00;;;17.40;100.00
56198;BME280;42700;42.524;12.052;2022-09-17T13:26:58;84217.72;;;18.32;100.00
56198;BME280;42700;42.524;12.052;2022-09-17T13:34:54;85236.44;;;17.33;100.00
56198;BME280;42700;42.524;12.052;2022-09-17T13:37:20;87072.34;;;17.56;100.00
56198;BME280;42700;42.524;12.052;2022-09-17T13:39:47;87391.13;;;17.46;100.00
56198;BME280;42700;42.524;12.052;2022-09-17T13:42:22;87493.66;;;17.32;100.00
56198;BME280;42700;42.524;12.052;2022-09-17T13:45:05;89574.00;;;17.56;100.00
56198;BME280;42700;42.524;12.052;2022-09-17T13:47:32;88253.50;;;16.87;100.00
56198;BME280;42700;42.524;12.052;2022-09-17T13:50:03;90017.81;;;17.19;100.00
56198;BME280;42700;42.524;12.052;2022-09-17T13:54:55;94285.53;;;18.57;100.00
56198;BME280;42700;42.524;12.052;2022-09-17T13:57:21;91636.16;;;18.03;100.00
56198;BME280;42700;42.524;12.052;2022-09-17T13:59:51;92308.84;;;18.06;100.00
56198;BME280;42700;42.524;12.052;2022-09-17T14:09:54;90053.41;;;16.85;100.00
56198;BME280;42700;42.524;12.052;2022-09-17T14:17:52;96911.72;;;18.32;100.00
56198;BME280;42700;42.524;12.052;2022-09-17T14:20:18;95840.38;;;18.43;100.00
56198;BME280;42700;42.524;12.052;2022-09-17T14:22:53;98695.56;;;19.67;100.00
56198;BME280;42700;42.524;12.052;2022-09-17T14:25:19;95794.75;;;19.53;100.00
56198;BME280;42700;42.524;12.052;2022-09-17T14:27:57;91275.19;;;18.16;100.00
56198;BME280;42700;42.524;12.052;2022-09-17T14:30:30;92326.06;;;18.24;100.00
56198;BME280;42700;42.524;12.052;2022-09-17T14:35:42;96872.59;;;20.01;100.00
56198;BME280;42700;42.524;12.052;2022-09-17T14:45:54;95021.91;;;21.51;100.00
56198;BME280;42700;42.524;12.052;2022-09-17T14:48:28;91784.59;;;20.94;100.00
56198;BME280;42700;42.524;12.052;2022-09-17T14:53:38;87474.53;;;19.69;100.00
56198;BME280;42700;42.524;12.052;2022-09-17T14:56:04;89548.19;;;20.53;100.00
56198;BME280;42700;42.524;12.052;2022-09-17T14:58:31;89981.53;;;20.99;100.00
56198;BME280;42700;42.524;12.052;2022-09-17T15:00:59;87969.25;;;20.59;100.00
56198;BME280;42700;42.524;12.052;2022-09-17T15:03:25;89481.13;;;21.12;100.00
56198;BME280;42700;42.524;12.052;2022-09-17T15:05:50;91316.06;;;22.17;100.00
56198;BME280;42700;42.524;12.052;2022-09-17T15:08:17;90331.69;;;22.10;100.00
56198;BME280;42700;42.524;12.052;2022-09-17T15:10:46;88778.06;;;21.90;100.00
56198;BME280;42700;42.524;12.052;2022-09-17T15:13:14;89753.59;;;22.38;100.00
56198;BME280;42700;42.524;12.052;2022-09-17T15:15:41;89674.72;;;22.43;100.00
56198;BME280;42700;42.524;12.052;2022-09-17T15:18:15;88239.75;;;21.99;100.00
56198;BME280;42700;42.524;12.052;2022-09-17T15:20:41;84616.63;;;20.90;100.00
56198;BME280;42700;42.524;12.052;2022-09-17T15:23:21;83065.72;;;20.05;100.00
56198;BME280;42700;42.524;12.052;2022-09-17T15:25:49;86601.78;;;20.97;100.00
56198;BME280;42700;42.524;12.052;2022-09-17T15:28:24;81373.78;;;19.18;100.00
56198;BME280;42700;42.524;12.052;2022-09-17T15:30:52;83444.81;;;19.68;100.00
56198;BME280;42700;42.524;12.052;2022-09-17T15:33:17;81689.09;;;19.10;100.00
56198;BME280;42700;42.524;12.052;2022-09-17T15:35:59;81701.78;;;18.89;100.00
56198;BME280;42700;42.524;12.052;2022-09-17T15:38:27;81654.31;;;18.74;100.00
56198;BME280;42700;42.524;12.052;2022-09-17T15:40:53;80814.47;;;18.42;100.00
56198;BME280;42700;42.524;12.052;2022-09-17T15:45:50;81780.09;;;18.36;100.00
56198;BME280;42700;42.524;12.052;2022-09-17T15:48:31;83295.44;;;18.73;100.00
56198;BME280;42700;42.524;12.052;2022-09-17T15:50:59;83063.19;;;18.54;100.00